createdAt,value
2023-04-10T00:00:36.683Z,34.57
2023-04-10T00:01:36.783Z,34.56
2023-04-10T00:02:36.984Z,34.56
2023-04-10T00:03:37.221Z,34.55
2023-04-10T00:04:36.954Z,34.54
2023-04-10T00:05:37.037Z,34.55
2023-04-10T00:06:37.089Z,34.55
2023-04-10T00:07:37.079Z,34.55
2023-04-10T00:08:37.134Z,34.56
2023-04-10T00:09:37.226Z,34.56
2023-04-10T00:10:37.295Z,34.55
2023-04-10T00:11:38.969Z,34.55
2023-04-10T00:12:37.445Z,34.55
2023-04-10T00:13:37.488Z,34.54
2023-04-10T00:14:37.491Z,34.51
2023-04-10T00:15:37.587Z,34.51
2023-04-10T00:16:37.802Z,34.53
2023-04-10T00:17:37.758Z,34.52
2023-04-10T00:18:37.769Z,34.50
2023-04-10T00:19:37.841Z,34.53
2023-04-10T00:20:37.881Z,34.53
2023-04-10T00:21:37.951Z,34.51
2023-04-10T00:22:38.023Z,34.53
2023-04-10T00:23:38.090Z,34.54
2023-04-10T00:24:38.125Z,34.52
2023-04-10T00:25:38.186Z,34.51
2023-04-10T00:26:38.267Z,34.51
2023-04-10T00:27:38.290Z,34.49
2023-04-10T00:28:38.404Z,34.51
2023-04-10T00:29:38.496Z,34.51
2023-04-10T00:30:38.484Z,34.51
2023-04-10T00:31:38.675Z,34.51
2023-04-10T00:32:38.752Z,34.48
2023-04-10T00:33:38.772Z,34.47
2023-04-10T00:34:38.793Z,34.49
2023-04-10T00:35:38.832Z,34.49
2023-04-10T00:36:38.863Z,34.47
2023-04-10T00:37:38.934Z,34.47
2023-04-10T00:38:39.001Z,34.47
2023-04-10T00:39:39.093Z,34.50
2023-04-10T00:40:39.103Z,34.48
2023-04-10T00:41:39.215Z,34.48
2023-04-10T00:42:39.248Z,34.46
2023-04-10T00:43:39.316Z,34.48
2023-04-10T00:44:39.422Z,34.44
2023-04-10T00:45:39.494Z,34.47
2023-04-10T00:46:39.505Z,34.44
2023-04-10T00:47:39.688Z,34.48
2023-04-10T00:48:39.628Z,34.44
2023-04-10T00:49:39.692Z,34.42
2023-04-10T00:50:39.740Z,34.47
2023-04-10T00:51:39.829Z,34.44
2023-04-10T00:52:39.882Z,34.47
2023-04-10T00:53:39.955Z,34.46
2023-04-10T00:54:39.977Z,34.48
2023-04-10T00:55:40.032Z,34.44
2023-04-10T00:56:40.112Z,34.43
2023-04-10T00:57:40.171Z,34.42
2023-04-10T00:58:40.237Z,34.43
2023-04-10T00:59:40.324Z,34.42
2023-04-10T01:00:40.352Z,34.41
2023-04-10T01:01:40.484Z,34.42
2023-04-10T01:02:40.602Z,34.40
2023-04-10T01:03:40.613Z,34.43
2023-04-10T01:04:40.613Z,34.42
2023-04-10T01:05:40.703Z,34.43
2023-04-10T01:06:40.792Z,34.42
2023-04-10T01:07:40.787Z,34.44
2023-04-10T01:08:40.922Z,34.44
2023-04-10T01:09:40.915Z,34.42
2023-04-10T01:10:40.985Z,34.40
2023-04-10T01:11:41.062Z,34.43
2023-04-10T01:12:41.106Z,34.44
2023-04-10T01:13:41.189Z,34.46
2023-04-10T01:14:41.260Z,34.40
2023-04-10T01:15:41.304Z,34.43
2023-04-10T01:16:41.382Z,34.44
2023-04-10T01:17:41.422Z,34.44
2023-04-10T01:18:41.522Z,34.40
2023-04-10T01:19:41.537Z,34.42
2023-04-10T01:20:41.652Z,34.41
2023-04-10T01:21:41.652Z,34.40
2023-04-10T01:22:41.688Z,34.42
2023-04-10T01:23:41.737Z,34.40
2023-04-10T01:24:41.778Z,34.43
2023-04-10T01:25:41.857Z,34.41
2023-04-10T01:26:41.900Z,34.42
2023-04-10T01:27:41.977Z,34.43
2023-04-10T01:28:43.018Z,34.43
2023-04-10T01:29:43.507Z,34.41
2023-04-10T01:30:42.115Z,34.41
2023-04-10T01:31:42.133Z,34.43
2023-04-10T01:32:42.031Z,34.44
2023-04-10T01:33:42.024Z,34.43
2023-04-10T01:34:42.062Z,34.41
2023-04-10T01:35:42.040Z,34.42
2023-04-10T01:36:42.040Z,34.43
2023-04-10T01:37:41.985Z,34.43
2023-04-10T01:38:42.013Z,34.41
2023-04-10T01:39:41.992Z,34.41
2023-04-10T01:40:41.955Z,34.40
2023-04-10T01:41:41.986Z,34.41
2023-04-10T01:42:43.195Z,34.40
2023-04-10T01:43:42.022Z,34.41
2023-04-10T01:44:41.960Z,34.39
2023-04-10T01:45:41.963Z,34.40
2023-04-10T01:46:41.990Z,34.39
2023-04-10T01:47:41.985Z,34.39
2023-04-10T01:48:41.908Z,34.39
2023-04-10T01:49:41.916Z,34.39
2023-04-10T01:50:41.904Z,34.39
2023-04-10T01:51:41.984Z,34.40
2023-04-10T01:52:41.941Z,34.40
2023-04-10T01:53:41.904Z,34.39
2023-04-10T01:54:41.880Z,34.40
2023-04-10T01:55:41.917Z,34.37
2023-04-10T01:56:41.890Z,34.39
2023-04-10T01:57:41.844Z,34.39
2023-04-10T01:58:41.949Z,34.40
2023-04-10T01:59:41.889Z,34.41
2023-04-10T02:00:41.935Z,34.41
2023-04-10T02:01:41.917Z,34.41
2023-04-10T02:02:41.925Z,34.42
2023-04-10T02:03:41.912Z,34.42
2023-04-10T02:04:42.011Z,34.42
2023-04-10T02:05:41.825Z,34.40
2023-04-10T02:06:41.864Z,34.40
2023-04-10T02:07:41.865Z,34.41
2023-04-10T02:08:41.843Z,34.41
2023-04-10T02:09:41.797Z,34.40
2023-04-10T02:10:41.807Z,34.41
2023-04-10T02:11:41.791Z,34.40
2023-04-10T02:12:41.798Z,34.43
2023-04-10T02:13:41.769Z,34.43
2023-04-10T02:14:41.778Z,34.43
2023-04-10T02:15:42.586Z,34.40
2023-04-10T02:16:41.782Z,34.40
2023-04-10T02:17:41.802Z,34.41
2023-04-10T02:18:41.746Z,34.41
2023-04-10T02:19:41.715Z,34.43
2023-04-10T02:20:41.763Z,34.43
2023-04-10T02:21:41.725Z,34.41
2023-04-10T02:22:41.700Z,34.42
2023-04-10T02:23:41.705Z,34.40
2023-04-10T02:24:41.711Z,34.41
2023-04-10T02:25:41.677Z,34.42
2023-04-10T02:26:41.708Z,34.42
2023-04-10T02:27:41.679Z,34.40
2023-04-10T02:28:41.656Z,34.40
2023-04-10T02:29:41.649Z,34.43
2023-04-10T02:30:41.687Z,34.43
2023-04-10T02:31:41.711Z,34.42
2023-04-10T02:32:41.628Z,34.42
2023-04-10T02:33:41.691Z,34.43
2023-04-10T02:34:41.602Z,34.39
2023-04-10T02:35:41.612Z,34.38
2023-04-10T02:36:41.632Z,34.40
2023-04-10T02:37:41.573Z,34.40
2023-04-10T02:38:41.570Z,34.41
2023-04-10T02:39:41.598Z,34.39
2023-04-10T02:40:41.572Z,34.40
2023-04-10T02:41:41.571Z,34.37
2023-04-10T02:42:41.535Z,34.39
2023-04-10T02:43:41.547Z,34.38
2023-04-10T02:44:41.577Z,34.38
2023-04-10T02:45:41.542Z,34.39
2023-04-10T02:46:41.578Z,34.38
2023-04-10T02:47:41.572Z,34.39
2023-04-10T02:48:41.557Z,34.37
2023-04-10T02:49:41.537Z,34.40
2023-04-10T02:50:41.485Z,34.41
2023-04-10T02:51:41.471Z,34.40
2023-04-10T02:52:41.492Z,34.39
2023-04-10T02:53:41.471Z,34.39
2023-04-10T02:54:41.455Z,34.37
2023-04-10T02:55:41.447Z,34.38
2023-04-10T02:56:41.454Z,34.40
2023-04-10T02:57:41.439Z,34.37
2023-04-10T02:58:41.989Z,34.39
2023-04-10T02:59:41.510Z,34.39
2023-04-10T03:00:41.465Z,34.38
2023-04-10T03:01:41.534Z,34.39
2023-04-10T03:02:41.529Z,34.38
2023-04-10T03:03:41.439Z,34.39
2023-04-10T03:04:41.491Z,34.38
2023-04-10T03:05:41.414Z,34.38
2023-04-10T03:06:41.498Z,34.37
2023-04-10T03:07:41.452Z,34.38
2023-04-10T03:08:41.493Z,34.38
2023-04-10T03:09:41.506Z,34.39
2023-04-10T03:10:41.483Z,34.36
2023-04-10T03:11:41.557Z,34.37
2023-04-10T03:12:41.465Z,34.39
2023-04-10T03:13:41.491Z,34.39
2023-04-10T03:14:41.500Z,34.36
2023-04-10T03:15:41.573Z,34.35
2023-04-10T03:16:41.605Z,34.36
2023-04-10T03:17:41.657Z,34.35
2023-04-10T03:18:41.596Z,34.36
2023-04-10T03:19:41.594Z,34.35
2023-04-10T03:20:43.195Z,34.35
2023-04-10T03:21:41.731Z,34.38
2023-04-10T03:22:41.711Z,34.36
2023-04-10T03:23:41.562Z,34.38
2023-04-10T03:24:41.626Z,34.37
2023-04-10T03:25:41.532Z,34.37
2023-04-10T03:26:41.547Z,34.34
2023-04-10T03:27:41.529Z,34.35
2023-04-10T03:28:41.507Z,34.35
2023-04-10T03:29:41.502Z,34.37
2023-04-10T03:30:41.519Z,34.37
2023-04-10T03:31:41.548Z,34.36
2023-04-10T03:32:41.519Z,34.35
2023-04-10T03:33:41.546Z,34.36
2023-04-10T03:34:41.512Z,34.35
2023-04-10T03:35:41.503Z,34.35
2023-04-10T03:36:41.465Z,34.35
2023-04-10T03:37:41.496Z,34.34
2023-04-10T03:38:41.502Z,34.35
2023-04-10T03:39:41.472Z,34.35
2023-04-10T03:40:41.509Z,34.35
2023-04-10T03:41:41.430Z,34.34
2023-04-10T03:42:41.440Z,34.34
2023-04-10T03:43:41.428Z,34.32
2023-04-10T03:44:41.418Z,34.34
2023-04-10T03:45:41.440Z,34.35
2023-04-10T03:46:41.491Z,34.34
2023-04-10T03:47:41.466Z,34.31
2023-04-10T03:48:41.512Z,34.34
2023-04-10T03:49:41.396Z,34.33
2023-04-10T03:50:41.465Z,34.33
2023-04-10T03:51:41.456Z,34.35
2023-04-10T03:52:41.412Z,34.35
2023-04-10T03:53:41.391Z,34.36
2023-04-10T03:54:41.361Z,34.34
2023-04-10T03:55:41.347Z,34.39
2023-04-10T03:56:41.358Z,34.37
2023-04-10T03:57:41.327Z,34.34
2023-04-10T03:58:41.300Z,34.31
2023-04-10T03:59:41.330Z,34.24
2023-04-10T04:00:41.335Z,34.17
2023-04-10T04:01:41.403Z,34.11
2023-04-10T04:02:41.517Z,34.00
2023-04-10T04:03:41.399Z,33.93
2023-04-10T04:04:41.311Z,33.83
2023-04-10T04:05:41.297Z,33.77
2023-04-10T04:06:41.288Z,33.67
2023-04-10T04:07:41.246Z,33.60
2023-04-10T04:08:41.224Z,33.55
2023-04-10T04:09:41.208Z,33.51
2023-04-10T04:10:41.227Z,33.45
2023-04-10T04:11:41.311Z,33.42
2023-04-10T04:12:41.276Z,33.41
2023-04-10T04:13:41.180Z,33.38
2023-04-10T04:14:41.272Z,33.37
2023-04-10T04:15:41.206Z,33.30
2023-04-10T04:16:41.189Z,33.28
2023-04-10T04:17:41.219Z,33.27
2023-04-10T04:18:41.904Z,33.22
2023-04-10T04:19:41.170Z,33.19
2023-04-10T04:20:41.217Z,33.20
2023-04-10T04:21:41.304Z,33.18
2023-04-10T04:22:41.274Z,33.15
2023-04-10T04:23:41.317Z,33.12
2023-04-10T04:24:41.357Z,33.11
2023-04-10T04:25:41.416Z,33.10
2023-04-10T04:26:41.441Z,33.07
2023-04-10T04:27:41.453Z,33.04
2023-04-10T04:28:41.490Z,33.05
2023-04-10T04:29:41.534Z,33.04
2023-04-10T04:30:41.558Z,32.98
2023-04-10T04:31:41.660Z,32.93
2023-04-10T04:32:41.662Z,32.93
2023-04-10T04:33:41.652Z,32.91
2023-04-10T04:34:41.684Z,32.89
2023-04-10T04:35:42.554Z,32.86
2023-04-10T04:36:41.795Z,32.85
2023-04-10T04:37:41.757Z,32.81
2023-04-10T04:38:41.783Z,32.81
2023-04-10T04:39:41.793Z,32.77
2023-04-10T04:40:41.833Z,32.78
2023-04-10T04:41:41.895Z,32.74
2023-04-10T04:42:41.898Z,32.74
2023-04-10T04:43:41.917Z,32.72
2023-04-10T04:44:41.921Z,32.73
2023-04-10T04:45:41.962Z,32.70
2023-04-10T04:46:44.401Z,32.67
2023-04-10T04:47:41.982Z,32.71
2023-04-10T04:48:41.949Z,32.72
2023-04-10T04:49:41.915Z,32.70
2023-04-10T04:50:41.928Z,32.70
2023-04-10T04:51:41.903Z,32.68
2023-04-10T04:52:42.508Z,32.66
2023-04-10T04:53:41.890Z,32.68
2023-04-10T04:54:41.887Z,32.60
2023-04-10T04:55:41.891Z,32.58
2023-04-10T04:56:41.931Z,32.56
2023-04-10T04:57:41.873Z,32.46
2023-04-10T04:58:41.875Z,32.46
2023-04-10T04:59:41.872Z,32.46
2023-04-10T05:00:41.918Z,32.40
2023-04-10T05:01:41.980Z,32.36
2023-04-10T05:02:41.979Z,32.36
2023-04-10T05:03:42.003Z,32.30
2023-04-10T05:04:41.801Z,32.28
2023-04-10T05:05:41.854Z,32.23
2023-04-10T05:06:41.819Z,32.22
2023-04-10T05:07:41.814Z,32.16
2023-04-10T05:08:41.818Z,32.13
2023-04-10T05:09:41.778Z,32.07
2023-04-10T05:10:41.790Z,32.05
2023-04-10T05:11:41.828Z,31.99
2023-04-10T05:12:41.802Z,31.98
2023-04-10T05:13:41.758Z,31.99
2023-04-10T05:14:41.749Z,31.92
2023-04-10T05:15:41.781Z,31.89
2023-04-10T05:16:41.759Z,31.81
2023-04-10T05:17:41.835Z,31.69
2023-04-10T05:18:41.781Z,31.61
2023-04-10T05:19:41.705Z,31.44
2023-04-10T05:20:41.725Z,31.21
2023-04-10T05:21:41.766Z,30.04
2023-04-10T05:22:41.706Z,28.01
2023-04-10T05:23:41.678Z,26.08
2023-04-10T05:24:41.667Z,24.60
2023-04-10T05:25:41.666Z,23.46
2023-04-10T05:26:41.703Z,22.61
2023-04-10T05:27:41.660Z,21.87
2023-04-10T05:28:41.676Z,21.53
2023-04-10T05:29:41.682Z,21.82
2023-04-10T05:30:41.668Z,22.62
2023-04-10T05:31:41.673Z,23.65
2023-04-10T05:32:41.703Z,24.39
2023-04-10T05:33:41.631Z,25.08
2023-04-10T05:34:41.678Z,25.57
2023-04-10T05:35:41.684Z,25.98
2023-04-10T05:36:41.643Z,26.29
2023-04-10T05:37:41.618Z,26.60
2023-04-10T05:38:41.596Z,26.82
2023-04-10T05:39:41.622Z,26.72
2023-04-10T05:40:41.610Z,25.51
2023-04-10T05:41:41.573Z,23.46
2023-04-10T05:42:41.560Z,21.62
2023-04-10T05:43:41.597Z,20.32
2023-04-10T05:44:41.560Z,19.41
2023-04-10T05:45:41.590Z,18.70
2023-04-10T05:46:41.688Z,18.16
2023-04-10T05:47:41.586Z,17.65
2023-04-10T05:48:41.560Z,17.23
2023-04-10T05:49:41.544Z,17.07
2023-04-10T05:50:41.631Z,17.53
2023-04-10T05:51:41.664Z,18.53
2023-04-10T05:52:41.713Z,19.78
2023-04-10T05:53:41.730Z,20.93
2023-04-10T05:54:41.742Z,21.91
2023-04-10T05:55:41.808Z,22.65
2023-04-10T05:56:41.843Z,23.26
2023-04-10T05:57:41.853Z,23.73
2023-04-10T05:58:41.929Z,24.16
2023-04-10T05:59:41.924Z,24.49
2023-04-10T06:00:41.960Z,24.77
2023-04-10T06:01:42.049Z,25.03
2023-04-10T06:02:42.209Z,25.27
2023-04-10T06:03:42.152Z,25.48
2023-04-10T06:04:42.193Z,25.62
2023-04-10T06:05:42.124Z,25.75
2023-04-10T06:06:42.140Z,25.89
2023-04-10T06:07:42.147Z,25.97
2023-04-10T06:08:43.139Z,26.09
2023-04-10T06:09:42.383Z,26.26
2023-04-10T06:10:42.320Z,26.34
2023-04-10T06:11:42.378Z,26.37
2023-04-10T06:12:42.443Z,26.46
2023-04-10T06:13:42.457Z,26.52
2023-04-10T06:14:42.530Z,26.59
2023-04-10T06:15:42.608Z,26.62
2023-04-10T06:16:42.686Z,26.70
2023-04-10T06:17:42.749Z,26.77
2023-04-10T06:18:43.065Z,26.82
2023-04-10T06:19:43.135Z,26.85
2023-04-10T06:20:42.858Z,26.88
2023-04-10T06:21:42.828Z,26.91
2023-04-10T06:22:42.838Z,26.89
2023-04-10T06:23:42.991Z,26.87
2023-04-10T06:24:42.928Z,26.86
2023-04-10T06:25:42.989Z,26.84
2023-04-10T06:26:43.146Z,26.84
2023-04-10T06:27:43.142Z,26.84
2023-04-10T06:28:43.199Z,26.86
2023-04-10T06:29:43.208Z,26.85
2023-04-10T06:30:43.251Z,26.91
2023-04-10T06:31:43.348Z,26.95
2023-04-10T06:32:43.367Z,26.95
2023-04-10T06:33:43.483Z,27.00
2023-04-10T06:34:43.425Z,27.02
2023-04-10T06:35:43.460Z,27.03
2023-04-10T06:36:43.511Z,27.09
2023-04-10T06:37:43.526Z,27.09
2023-04-10T06:38:43.596Z,27.09
2023-04-10T06:39:43.672Z,27.13
2023-04-10T06:40:43.630Z,27.12
2023-04-10T06:41:43.721Z,27.12
2023-04-10T06:42:43.717Z,27.16
2023-04-10T06:43:43.751Z,27.19
2023-04-10T06:44:43.819Z,27.19
2023-04-10T06:45:43.850Z,27.22
2023-04-10T06:46:43.894Z,27.27
2023-04-10T06:47:44.110Z,27.27
2023-04-10T06:48:43.993Z,27.28
2023-04-10T06:49:44.065Z,27.30
2023-04-10T06:50:44.032Z,27.34
2023-04-10T06:51:44.087Z,27.31
2023-04-10T06:52:44.138Z,27.33
2023-04-10T06:53:44.177Z,27.36
2023-04-10T06:54:44.218Z,27.40
2023-04-10T06:55:44.235Z,27.36
2023-04-10T06:56:44.304Z,27.35
2023-04-10T06:57:44.336Z,27.35
2023-04-10T06:58:44.360Z,27.38
2023-04-10T06:59:44.424Z,27.39
2023-04-10T07:00:44.477Z,27.42
2023-04-10T07:01:44.476Z,27.44
2023-04-10T07:02:44.551Z,27.47
2023-04-10T07:03:44.585Z,27.50
2023-04-10T07:04:45.101Z,27.52
2023-04-10T07:05:44.626Z,27.57
2023-04-10T07:06:44.645Z,27.58
2023-04-10T07:07:44.642Z,27.60
2023-04-10T07:08:45.601Z,27.61
2023-04-10T07:09:44.728Z,27.68
2023-04-10T07:10:44.777Z,27.72
2023-04-10T07:11:44.801Z,27.73
2023-04-10T07:12:44.869Z,27.75
2023-04-10T07:13:44.931Z,27.80
2023-04-10T07:14:44.929Z,27.80
2023-04-10T07:15:44.968Z,27.85
2023-04-10T07:16:45.119Z,27.87
2023-04-10T07:17:45.127Z,27.93
2023-04-10T07:18:46.332Z,27.94
2023-04-10T07:19:45.335Z,27.97
2023-04-10T07:20:45.369Z,28.01
2023-04-10T07:21:45.375Z,28.03
2023-04-10T07:22:45.430Z,28.05
2023-04-10T07:23:45.453Z,28.08
2023-04-10T07:24:45.486Z,28.11
2023-04-10T07:25:45.549Z,28.14
2023-04-10T07:26:45.579Z,28.16
2023-04-10T07:27:45.652Z,28.18
2023-04-10T07:28:45.598Z,28.22
2023-04-10T07:29:45.628Z,28.24
2023-04-10T07:30:45.666Z,28.29
2023-04-10T07:31:45.898Z,28.30
2023-04-10T07:32:45.846Z,28.34
2023-04-10T07:33:45.775Z,28.35
2023-04-10T07:34:45.777Z,28.38
2023-04-10T07:35:45.809Z,28.42
2023-04-10T07:36:46.175Z,28.46
2023-04-10T07:37:45.844Z,28.50
2023-04-10T07:38:45.870Z,28.50
2023-04-10T07:39:45.874Z,28.53
2023-04-10T07:40:45.965Z,28.59
2023-04-10T07:41:45.933Z,28.62
2023-04-10T07:42:46.004Z,28.62
2023-04-10T07:43:45.985Z,28.65
2023-04-10T07:44:45.998Z,28.68
2023-04-10T07:45:46.038Z,28.70
2023-04-10T07:46:46.040Z,28.74
2023-04-10T07:47:46.151Z,28.78
2023-04-10T07:48:46.074Z,28.80
2023-04-10T07:49:46.097Z,28.83
2023-04-10T07:50:46.111Z,28.86
2023-04-10T07:51:47.145Z,28.87
2023-04-10T07:52:46.166Z,28.91
2023-04-10T07:53:46.201Z,28.95
2023-04-10T07:54:46.225Z,28.98
2023-04-10T07:55:46.294Z,29.01
2023-04-10T07:56:46.297Z,29.04
2023-04-10T07:57:46.331Z,29.04
2023-04-10T07:58:46.358Z,29.06
2023-04-10T07:59:46.396Z,29.09
2023-04-10T08:00:46.430Z,29.12
2023-04-10T08:01:46.542Z,29.13
2023-04-10T08:02:46.557Z,29.15
2023-04-10T08:03:46.582Z,29.15
2023-04-10T08:04:46.587Z,29.20
2023-04-10T08:05:46.569Z,29.23
2023-04-10T08:06:46.610Z,29.26
2023-04-10T08:07:46.656Z,29.28
2023-04-10T08:08:46.709Z,29.29
2023-04-10T08:09:46.744Z,29.30
2023-04-10T08:10:46.777Z,29.34
2023-04-10T08:11:47.132Z,29.35
2023-04-10T08:12:46.894Z,29.39
2023-04-10T08:13:46.851Z,29.41
2023-04-10T08:14:46.885Z,29.44
2023-04-10T08:15:46.900Z,29.43
2023-04-10T08:16:46.985Z,29.47
2023-04-10T08:17:46.983Z,29.48
2023-04-10T08:18:46.991Z,29.52
2023-04-10T08:19:47.005Z,29.54
2023-04-10T08:20:47.089Z,29.54
2023-04-10T08:21:47.110Z,29.56
2023-04-10T08:22:48.152Z,29.58
2023-04-10T08:23:47.154Z,29.61
2023-04-10T08:24:47.232Z,29.62
2023-04-10T08:25:47.243Z,29.63
2023-04-10T08:26:47.247Z,29.64
2023-04-10T08:27:47.350Z,29.68
2023-04-10T08:28:47.345Z,29.70
2023-04-10T08:29:47.435Z,29.73
2023-04-10T08:30:47.443Z,29.77
2023-04-10T08:31:47.428Z,29.79
2023-04-10T08:32:47.523Z,29.80
2023-04-10T08:33:47.530Z,29.83
2023-04-10T08:34:47.579Z,29.84
2023-04-10T08:35:47.641Z,29.87
2023-04-10T08:36:47.684Z,29.87
2023-04-10T08:37:53.596Z,29.93
2023-04-10T08:38:48.729Z,29.95
2023-04-10T08:39:47.674Z,29.97
2023-04-10T08:40:47.696Z,29.97
2023-04-10T08:41:47.680Z,29.97
2023-04-10T08:42:47.657Z,29.99
2023-04-10T08:43:47.652Z,30.01
2023-04-10T08:44:47.650Z,30.05
2023-04-10T08:45:47.683Z,30.08
2023-04-10T08:46:47.622Z,30.08
2023-04-10T08:47:48.160Z,30.11
2023-04-10T08:48:47.620Z,30.10
2023-04-10T08:49:47.628Z,30.14
2023-04-10T08:50:47.593Z,30.18
2023-04-10T08:51:49.036Z,30.20
2023-04-10T08:52:47.628Z,30.22
2023-04-10T08:53:47.584Z,30.24
2023-04-10T08:54:47.562Z,30.27
2023-04-10T08:55:47.603Z,30.30
2023-04-10T08:56:47.560Z,30.32
2023-04-10T08:57:54.126Z,30.33
2023-04-10T08:58:48.555Z,30.36
2023-04-10T08:59:47.562Z,30.38
2023-04-10T09:00:47.564Z,30.37
2023-04-10T09:01:47.640Z,30.39
2023-04-10T09:02:47.738Z,30.40
2023-04-10T09:03:47.657Z,30.43
2023-04-10T09:04:47.681Z,30.44
2023-04-10T09:05:47.721Z,30.49
2023-04-10T09:06:48.627Z,30.51
2023-04-10T09:07:47.857Z,30.54
2023-04-10T09:08:47.939Z,30.57
2023-04-10T09:09:47.972Z,30.58
2023-04-10T09:10:48.036Z,30.62
2023-04-10T09:11:48.089Z,30.62
2023-04-10T09:12:48.116Z,30.66
2023-04-10T09:13:48.177Z,30.69
2023-04-10T09:14:48.250Z,30.69
2023-04-10T09:15:48.314Z,30.70
2023-04-10T09:16:48.295Z,30.71
2023-04-10T09:17:48.381Z,30.72
2023-04-10T09:18:48.403Z,30.60
2023-04-10T09:19:48.417Z,30.62
2023-04-10T09:20:48.407Z,30.60
2023-04-10T09:21:48.426Z,30.80
2023-04-10T09:22:48.393Z,30.67
2023-04-10T09:23:48.440Z,30.48
2023-04-10T09:24:48.455Z,30.16
2023-04-10T09:25:49.874Z,29.95
2023-04-10T09:26:48.418Z,29.82
2023-04-10T09:27:48.498Z,30.37
2023-04-10T09:28:48.402Z,29.83
2023-04-10T09:29:48.442Z,29.71
2023-04-10T09:30:48.394Z,29.86
2023-04-10T09:31:48.601Z,29.94
2023-04-10T09:32:48.497Z,29.93
2023-04-10T09:33:48.444Z,29.83
2023-04-10T09:34:48.367Z,29.78
2023-04-10T09:35:48.420Z,29.79
2023-04-10T09:36:48.411Z,29.78
2023-04-10T09:37:48.344Z,29.78
2023-04-10T09:38:48.333Z,29.83
2023-04-10T09:39:48.358Z,29.81
2023-04-10T09:40:49.140Z,29.72
2023-04-10T09:41:48.342Z,29.70
2023-04-10T09:42:48.303Z,29.84
2023-04-10T09:43:48.325Z,30.07
2023-04-10T09:44:48.291Z,30.63
2023-04-10T09:45:48.275Z,31.05
2023-04-10T09:46:48.324Z,31.51
2023-04-10T09:47:48.282Z,32.28
2023-04-10T09:48:48.258Z,32.51
2023-04-10T09:49:48.315Z,32.64
2023-04-10T09:50:48.238Z,32.52
2023-04-10T09:51:48.269Z,32.45
2023-04-10T09:52:48.237Z,32.47
2023-04-10T09:53:48.268Z,32.48
2023-04-10T09:54:48.207Z,32.53
2023-04-10T09:55:48.239Z,32.56
2023-04-10T09:56:48.209Z,32.57
2023-04-10T09:57:48.264Z,32.54
2023-04-10T09:58:48.201Z,32.57
2023-04-10T09:59:48.213Z,32.58
2023-04-10T10:00:48.198Z,32.58
2023-04-10T10:01:48.277Z,32.57
2023-04-10T10:02:48.316Z,32.55
2023-04-10T10:03:48.271Z,32.52
2023-04-10T10:04:48.180Z,32.55
2023-04-10T10:05:48.174Z,32.54
2023-04-10T10:06:48.259Z,32.53
2023-04-10T10:07:48.151Z,32.57
2023-04-10T10:08:48.177Z,32.54
2023-04-10T10:09:48.160Z,32.53
2023-04-10T10:10:48.122Z,32.56
2023-04-10T10:11:48.127Z,32.55
2023-04-10T10:12:48.097Z,32.55
2023-04-10T10:13:48.121Z,32.56
2023-04-10T10:14:48.130Z,32.53
2023-04-10T10:15:48.210Z,32.53
2023-04-10T10:16:48.340Z,32.52
2023-04-10T10:17:48.284Z,32.53
2023-04-10T10:18:48.277Z,32.53
2023-04-10T10:19:48.276Z,32.52
2023-04-10T10:20:48.351Z,32.52
2023-04-10T10:21:48.429Z,32.56
2023-04-10T10:22:49.248Z,32.53
2023-04-10T10:23:48.518Z,32.55
2023-04-10T10:24:48.479Z,32.53
2023-04-10T10:25:48.525Z,32.55
2023-04-10T10:26:48.569Z,32.53
2023-04-10T10:27:48.587Z,32.56
2023-04-10T10:28:48.705Z,32.57
2023-04-10T10:29:48.675Z,32.56
2023-04-10T10:30:48.746Z,32.56
2023-04-10T10:31:48.800Z,32.59
2023-04-10T10:32:48.845Z,32.54
2023-04-10T10:33:48.855Z,32.52
2023-04-10T10:34:48.883Z,32.52
2023-04-10T10:35:48.951Z,32.52
2023-04-10T10:36:49.054Z,32.54
2023-04-10T10:37:49.035Z,32.52
2023-04-10T10:38:49.112Z,32.54
2023-04-10T10:39:49.109Z,32.50
2023-04-10T10:40:49.156Z,32.52
2023-04-10T10:41:49.218Z,32.54
2023-04-10T10:42:49.276Z,32.54
2023-04-10T10:43:49.301Z,32.57
2023-04-10T10:44:49.403Z,32.54
2023-04-10T10:45:49.493Z,32.52
2023-04-10T10:46:49.459Z,32.51
2023-04-10T10:47:49.572Z,32.49
2023-04-10T10:48:49.531Z,32.48
2023-04-10T10:49:50.182Z,32.51
2023-04-10T10:50:49.680Z,32.49
2023-04-10T10:51:49.687Z,32.49
2023-04-10T10:52:49.777Z,32.51
2023-04-10T10:53:49.791Z,32.52
2023-04-10T10:54:59.209Z,32.50
2023-04-10T10:55:50.852Z,32.46
2023-04-10T10:56:49.848Z,32.44
2023-04-10T10:57:49.804Z,32.45
2023-04-10T10:58:49.854Z,32.46
2023-04-10T10:59:49.915Z,32.46
2023-04-10T11:00:50.034Z,32.45
2023-04-10T11:01:50.106Z,32.45
2023-04-10T11:02:50.197Z,32.45
2023-04-10T11:03:50.257Z,32.49
2023-04-10T11:04:50.177Z,32.46
2023-04-10T11:05:51.108Z,32.45
2023-04-10T11:06:50.292Z,32.45
2023-04-10T11:07:51.187Z,32.45
2023-04-10T11:08:50.385Z,32.41
2023-04-10T11:09:50.456Z,32.42
2023-04-10T11:10:50.516Z,32.44
2023-04-10T11:11:50.595Z,32.43
2023-04-10T11:12:50.636Z,32.43
2023-04-10T11:13:50.682Z,32.39
2023-04-10T11:14:50.746Z,32.42
2023-04-10T11:15:50.800Z,32.39
2023-04-10T11:16:51.237Z,32.40
2023-04-10T11:17:51.014Z,32.42
2023-04-10T11:18:59.306Z,32.41
2023-04-10T11:19:52.083Z,32.43
2023-04-10T11:20:51.016Z,32.39
2023-04-10T11:21:50.990Z,32.42
2023-04-10T11:22:51.062Z,32.41
2023-04-10T11:23:51.077Z,32.42
2023-04-10T11:24:51.141Z,32.44
2023-04-10T11:25:51.246Z,32.43
2023-04-10T11:26:51.237Z,32.42
2023-04-10T11:27:51.295Z,32.45
2023-04-10T11:28:51.362Z,32.43
2023-04-10T11:29:51.406Z,32.41
2023-04-10T11:30:51.428Z,32.41
2023-04-10T11:31:51.582Z,32.39
2023-04-10T11:32:51.521Z,32.39
2023-04-10T11:33:51.542Z,32.38
2023-04-10T11:34:51.577Z,32.37
2023-04-10T11:35:51.650Z,32.37
2023-04-10T11:36:51.622Z,32.40
2023-04-10T11:37:51.590Z,32.35
2023-04-10T11:38:51.801Z,32.35
2023-04-10T11:39:51.719Z,32.37
2023-04-10T11:40:51.655Z,32.35
2023-04-10T11:41:51.757Z,32.35
2023-04-10T11:42:52.190Z,32.32
2023-04-10T11:43:51.744Z,32.31
2023-04-10T11:44:52.225Z,32.31
2023-04-10T11:45:51.695Z,32.31
2023-04-10T11:46:51.775Z,32.33
2023-04-10T11:47:51.771Z,32.32
2023-04-10T11:48:51.708Z,32.32
2023-04-10T11:49:51.771Z,32.28
2023-04-10T11:50:51.776Z,32.27
2023-04-10T11:51:51.792Z,32.21
2023-04-10T11:52:52.262Z,32.22
2023-04-10T11:53:51.725Z,32.22
2023-04-10T11:54:51.719Z,32.20
2023-04-10T11:55:51.708Z,32.23
2023-04-10T11:56:51.758Z,32.23
2023-04-10T11:57:51.723Z,32.19
2023-04-10T11:58:51.829Z,32.22
2023-04-10T11:59:51.753Z,32.23
2023-04-10T12:00:51.701Z,32.16
2023-04-10T12:01:51.722Z,32.19
2023-04-10T12:02:52.161Z,32.18
2023-04-10T12:03:51.995Z,32.17
2023-04-10T12:04:51.770Z,32.16
2023-04-10T12:05:51.681Z,32.15
2023-04-10T12:06:51.713Z,32.12
2023-04-10T12:07:51.686Z,32.17
2023-04-10T12:08:51.716Z,32.16
2023-04-10T12:09:51.655Z,32.15
2023-04-10T12:10:51.696Z,32.13
2023-04-10T12:11:51.666Z,32.13
2023-04-10T12:12:51.701Z,32.17
2023-04-10T12:13:51.711Z,32.20
2023-04-10T12:14:51.706Z,32.17
2023-04-10T12:15:51.679Z,32.15
2023-04-10T12:16:51.685Z,32.14
2023-04-10T12:17:51.711Z,32.14
2023-04-10T12:18:51.788Z,32.17
2023-04-10T12:19:51.750Z,32.17
2023-04-10T12:20:51.691Z,32.15
2023-04-10T12:21:51.749Z,32.18
2023-04-10T12:22:51.773Z,32.18
2023-04-10T12:23:51.720Z,32.19
2023-04-10T12:24:51.771Z,32.19
2023-04-10T12:25:51.777Z,32.19
2023-04-10T12:26:51.776Z,32.18
2023-04-10T12:27:51.773Z,32.18
2023-04-10T12:28:52.192Z,32.21
2023-04-10T12:29:51.811Z,32.21
2023-04-10T12:30:51.876Z,32.19
2023-04-10T12:31:51.858Z,32.19
2023-04-10T12:32:51.970Z,32.15
2023-04-10T12:33:51.880Z,32.16
2023-04-10T12:34:52.001Z,32.18
2023-04-10T12:35:51.926Z,32.15
2023-04-10T12:36:51.980Z,32.15
2023-04-10T12:37:51.947Z,32.15
2023-04-10T12:38:52.019Z,32.14
2023-04-10T12:39:51.995Z,32.18
2023-04-10T12:40:52.021Z,32.18
2023-04-10T12:41:52.039Z,32.13
2023-04-10T12:42:52.064Z,32.14
2023-04-10T12:43:52.072Z,32.17
2023-04-10T12:44:52.153Z,32.18
2023-04-10T12:45:52.196Z,32.16
2023-04-10T12:46:52.805Z,32.11
2023-04-10T12:47:52.221Z,32.13
2023-04-10T12:48:52.496Z,32.13
2023-04-10T12:49:52.237Z,32.16
2023-04-10T12:50:52.226Z,32.15
2023-04-10T12:51:52.258Z,32.12
2023-04-10T12:52:52.229Z,32.14